<?xml version="1.0" encoding="UTF-8" standalone="no" ?>
<gpx xmlns="http://www.topografix.com/GPX/1/1" xmlns:xsi="http://www.w3.org/2001/XMLSchema-instance" xsi:schemaLocation="http://www.topografix.com/GPX/1/1 http://www.topografix.com/GPX/1/1/gpx.xsd" version="1.1" creator="VisuGPX - https://www.visugpx.com">
  <metadata>
    <name>les cretes du semaphore</name>
  </metadata>
  <trk>
    <name><![CDATA[5517601-les cretes du semaphore]]></name>
    <extensions>
      <line xmlns="http://www.topografix.com/GPX/gpx_style/0/2">
        <color>0000FF</color>
        <width>4</width>
      </line>
    </extensions>
    <trkseg>
      <trkpt lat="43.17638" lon="5.57344">
        <ele>309</ele>
        <time>2022-01-29T13:27:54Z</time>
      </trkpt>
      <trkpt lat="43.17698" lon="5.57314">
        <ele>313</ele>
        <time>2022-01-29T13:29:19Z</time>
      </trkpt>
      <trkpt lat="43.17723" lon="5.57193">
        <ele>298</ele>
        <time>2022-01-29T13:31:22Z</time>
      </trkpt>
      <trkpt lat="43.17919" lon="5.57119">
        <ele>302</ele>
        <time>2022-01-29T13:35:53Z</time>
      </trkpt>
      <trkpt lat="43.17922" lon="5.56973">
        <ele>301</ele>
        <time>2022-01-29T13:38:15Z</time>
      </trkpt>
      <trkpt lat="43.17993" lon="5.56972">
        <ele>319</ele>
        <time>2022-01-29T13:39:50Z</time>
      </trkpt>
      <trkpt lat="43.18105" lon="5.56796">
        <ele>337</ele>
        <time>2022-01-29T13:43:37Z</time>
      </trkpt>
      <trkpt lat="43.18138" lon="5.56616">
        <ele>314</ele>
        <time>2022-01-29T13:46:38Z</time>
      </trkpt>
      <trkpt lat="43.18159" lon="5.56602">
        <ele>332</ele>
        <time>2022-01-29T13:47:09Z</time>
      </trkpt>
      <trkpt lat="43.18181" lon="5.56628">
        <ele>355</ele>
        <time>2022-01-29T13:47:48Z</time>
      </trkpt>
      <trkpt lat="43.18257" lon="5.56598">
        <ele>376</ele>
        <time>2022-01-29T13:49:33Z</time>
      </trkpt>
      <trkpt lat="43.18288" lon="5.5653">
        <ele>358</ele>
        <time>2022-01-29T13:50:51Z</time>
      </trkpt>
      <trkpt lat="43.18328" lon="5.5652">
        <ele>370</ele>
        <time>2022-01-29T13:51:45Z</time>
      </trkpt>
      <trkpt lat="43.18378" lon="5.56473">
        <ele>343</ele>
        <time>2022-01-29T13:53:06Z</time>
      </trkpt>
      <trkpt lat="43.18428" lon="5.56366">
        <ele>299</ele>
        <time>2022-01-29T13:55:10Z</time>
      </trkpt>
      <trkpt lat="43.18435" lon="5.56342">
        <ele>286</ele>
        <time>2022-01-29T13:55:35Z</time>
      </trkpt>
      <trkpt lat="43.18514" lon="5.56279">
        <ele>293</ele>
        <time>2022-01-29T13:57:37Z</time>
      </trkpt>
      <trkpt lat="43.1855" lon="5.56268">
        <ele>300</ele>
        <time>2022-01-29T13:58:26Z</time>
      </trkpt>
      <trkpt lat="43.18601" lon="5.56142">
        <ele>286</ele>
        <time>2022-01-29T14:00:47Z</time>
      </trkpt>
      <trkpt lat="43.18698" lon="5.56116">
        <ele>311</ele>
        <time>2022-01-29T14:02:58Z</time>
      </trkpt>
      <trkpt lat="43.18726" lon="5.56069">
        <ele>320</ele>
        <time>2022-01-29T14:03:57Z</time>
      </trkpt>
      <trkpt lat="43.18765" lon="5.56034">
        <ele>326</ele>
        <time>2022-01-29T14:05:00Z</time>
      </trkpt>
      <trkpt lat="43.18814" lon="5.55926">
        <ele>312</ele>
        <time>2022-01-29T14:07:03Z</time>
      </trkpt>
      <trkpt lat="43.18815" lon="5.5589">
        <ele>298</ele>
        <time>2022-01-29T14:07:38Z</time>
      </trkpt>
      <trkpt lat="43.18827" lon="5.5584">
        <ele>284</ele>
        <time>2022-01-29T14:08:30Z</time>
      </trkpt>
      <trkpt lat="43.18876" lon="5.55795">
        <ele>237</ele>
        <time>2022-01-29T14:09:48Z</time>
      </trkpt>
      <trkpt lat="43.1894" lon="5.55787">
        <ele>279</ele>
        <time>2022-01-29T14:11:14Z</time>
      </trkpt>
      <trkpt lat="43.19015" lon="5.55759">
        <ele>320</ele>
        <time>2022-01-29T14:12:58Z</time>
      </trkpt>
      <trkpt lat="43.19013" lon="5.55707">
        <ele>288</ele>
        <time>2022-01-29T14:13:49Z</time>
      </trkpt>
      <trkpt lat="43.19019" lon="5.55686">
        <ele>274</ele>
        <time>2022-01-29T14:14:11Z</time>
      </trkpt>
      <trkpt lat="43.19052" lon="5.55618">
        <ele>240</ele>
        <time>2022-01-29T14:15:30Z</time>
      </trkpt>
      <trkpt lat="43.19064" lon="5.55584">
        <ele>233</ele>
        <time>2022-01-29T14:16:07Z</time>
      </trkpt>
      <trkpt lat="43.1912" lon="5.55545">
        <ele>245</ele>
        <time>2022-01-29T14:17:31Z</time>
      </trkpt>
      <trkpt lat="43.19232" lon="5.55463">
        <ele>290</ele>
        <time>2022-01-29T14:20:20Z</time>
      </trkpt>
      <trkpt lat="43.19297" lon="5.5539">
        <ele>274</ele>
        <time>2022-01-29T14:22:12Z</time>
      </trkpt>
      <trkpt lat="43.19325" lon="5.55363">
        <ele>283</ele>
        <time>2022-01-29T14:22:58Z</time>
      </trkpt>
      <trkpt lat="43.19381" lon="5.5536">
        <ele>318</ele>
        <time>2022-01-29T14:24:13Z</time>
      </trkpt>
      <trkpt lat="43.19453" lon="5.55384">
        <ele>346</ele>
        <time>2022-01-29T14:25:51Z</time>
      </trkpt>
      <trkpt lat="43.19567" lon="5.5537">
        <ele>341</ele>
        <time>2022-01-29T14:28:24Z</time>
      </trkpt>
      <trkpt lat="43.19648" lon="5.55317">
        <ele>316</ele>
        <time>2022-01-29T14:30:24Z</time>
      </trkpt>
      <trkpt lat="43.19677" lon="5.55285">
        <ele>309</ele>
        <time>2022-01-29T14:31:14Z</time>
      </trkpt>
      <trkpt lat="43.19699" lon="5.55287">
        <ele>310</ele>
        <time>2022-01-29T14:31:43Z</time>
      </trkpt>
      <trkpt lat="43.19708" lon="5.55271">
        <ele>310</ele>
        <time>2022-01-29T14:32:03Z</time>
      </trkpt>
      <trkpt lat="43.19715" lon="5.55238">
        <ele>307</ele>
        <time>2022-01-29T14:32:36Z</time>
      </trkpt>
      <trkpt lat="43.19749" lon="5.55222">
        <ele>309</ele>
        <time>2022-01-29T14:33:24Z</time>
      </trkpt>
      <trkpt lat="43.19791" lon="5.55188">
        <ele>288</ele>
        <time>2022-01-29T14:34:29Z</time>
      </trkpt>
      <trkpt lat="43.19857" lon="5.55214">
        <ele>287</ele>
        <time>2022-01-29T14:36:01Z</time>
      </trkpt>
      <trkpt lat="43.19942" lon="5.5523">
        <ele>295</ele>
        <time>2022-01-29T14:37:55Z</time>
      </trkpt>
      <trkpt lat="43.19967" lon="5.55236">
        <ele>297</ele>
        <time>2022-01-29T14:38:29Z</time>
      </trkpt>
      <trkpt lat="43.19896" lon="5.55237">
        <ele>307</ele>
        <time>2022-01-29T14:40:04Z</time>
      </trkpt>
      <trkpt lat="43.19864" lon="5.55227">
        <ele>297</ele>
        <time>2022-01-29T14:40:48Z</time>
      </trkpt>
      <trkpt lat="43.19791" lon="5.55201">
        <ele>293</ele>
        <time>2022-01-29T14:42:28Z</time>
      </trkpt>
      <trkpt lat="43.19748" lon="5.55233">
        <ele>311</ele>
        <time>2022-01-29T14:43:34Z</time>
      </trkpt>
      <trkpt lat="43.19718" lon="5.55249">
        <ele>311</ele>
        <time>2022-01-29T14:44:17Z</time>
      </trkpt>
      <trkpt lat="43.19708" lon="5.55289">
        <ele>310</ele>
        <time>2022-01-29T14:44:58Z</time>
      </trkpt>
      <trkpt lat="43.19708" lon="5.55309">
        <ele>310</ele>
        <time>2022-01-29T14:45:17Z</time>
      </trkpt>
      <trkpt lat="43.1974" lon="5.5533">
        <ele>308</ele>
        <time>2022-01-29T14:46:04Z</time>
      </trkpt>
      <trkpt lat="43.19814" lon="5.55438">
        <ele>302</ele>
        <time>2022-01-29T14:48:29Z</time>
      </trkpt>
      <trkpt lat="43.19821" lon="5.55504">
        <ele>295</ele>
        <time>2022-01-29T14:49:34Z</time>
      </trkpt>
      <trkpt lat="43.19849" lon="5.5556">
        <ele>289</ele>
        <time>2022-01-29T14:50:40Z</time>
      </trkpt>
      <trkpt lat="43.19805" lon="5.55558">
        <ele>293</ele>
        <time>2022-01-29T14:51:38Z</time>
      </trkpt>
      <trkpt lat="43.19814" lon="5.5558">
        <ele>289</ele>
        <time>2022-01-29T14:52:03Z</time>
      </trkpt>
      <trkpt lat="43.19865" lon="5.55609">
        <ele>285</ele>
        <time>2022-01-29T14:53:17Z</time>
      </trkpt>
      <trkpt lat="43.19913" lon="5.55682">
        <ele>274</ele>
        <time>2022-01-29T14:54:52Z</time>
      </trkpt>
      <trkpt lat="43.19921" lon="5.55808">
        <ele>264</ele>
        <time>2022-01-29T14:56:55Z</time>
      </trkpt>
      <trkpt lat="43.19971" lon="5.55888">
        <ele>264</ele>
        <time>2022-01-29T14:58:38Z</time>
      </trkpt>
      <trkpt lat="43.19949" lon="5.55994">
        <ele>258</ele>
        <time>2022-01-29T15:00:25Z</time>
      </trkpt>
      <trkpt lat="43.19999" lon="5.56135">
        <ele>240</ele>
        <time>2022-01-29T15:02:58Z</time>
      </trkpt>
      <trkpt lat="43.20054" lon="5.56163">
        <ele>238</ele>
        <time>2022-01-29T15:04:16Z</time>
      </trkpt>
      <trkpt lat="43.20072" lon="5.56254">
        <ele>230</ele>
        <time>2022-01-29T15:05:48Z</time>
      </trkpt>
      <trkpt lat="43.20032" lon="5.56318">
        <ele>229</ele>
        <time>2022-01-29T15:07:10Z</time>
      </trkpt>
      <trkpt lat="43.19999" lon="5.56342">
        <ele>225</ele>
        <time>2022-01-29T15:07:59Z</time>
      </trkpt>
      <trkpt lat="43.19979" lon="5.56507">
        <ele>217</ele>
        <time>2022-01-29T15:10:42Z</time>
      </trkpt>
      <trkpt lat="43.19953" lon="5.56597">
        <ele>217</ele>
        <time>2022-01-29T15:12:16Z</time>
      </trkpt>
      <trkpt lat="43.19957" lon="5.56651">
        <ele>213</ele>
        <time>2022-01-29T15:13:09Z</time>
      </trkpt>
      <trkpt lat="43.19992" lon="5.56712">
        <ele>205</ele>
        <time>2022-01-29T15:14:25Z</time>
      </trkpt>
      <trkpt lat="43.19949" lon="5.56839">
        <ele>202</ele>
        <time>2022-01-29T15:16:41Z</time>
      </trkpt>
      <trkpt lat="43.1995" lon="5.56893">
        <ele>197</ele>
        <time>2022-01-29T15:17:33Z</time>
      </trkpt>
      <trkpt lat="43.19886" lon="5.56899">
        <ele>195</ele>
        <time>2022-01-29T15:18:59Z</time>
      </trkpt>
      <trkpt lat="43.19864" lon="5.56999">
        <ele>180</ele>
        <time>2022-01-29T15:20:41Z</time>
      </trkpt>
      <trkpt lat="43.19815" lon="5.57008">
        <ele>181</ele>
        <time>2022-01-29T15:21:47Z</time>
      </trkpt>
      <trkpt lat="43.19829" lon="5.57083">
        <ele>171</ele>
        <time>2022-01-29T15:23:02Z</time>
      </trkpt>
      <trkpt lat="43.19812" lon="5.57164">
        <ele>175</ele>
        <time>2022-01-29T15:24:24Z</time>
      </trkpt>
      <trkpt lat="43.19759" lon="5.57191">
        <ele>172</ele>
        <time>2022-01-29T15:25:39Z</time>
      </trkpt>
      <trkpt lat="43.19699" lon="5.57176">
        <ele>172</ele>
        <time>2022-01-29T15:27:01Z</time>
      </trkpt>
      <trkpt lat="43.19678" lon="5.57202">
        <ele>171</ele>
        <time>2022-01-29T15:27:38Z</time>
      </trkpt>
      <trkpt lat="43.19673" lon="5.57282">
        <ele>165</ele>
        <time>2022-01-29T15:28:57Z</time>
      </trkpt>
      <trkpt lat="43.19659" lon="5.57308">
        <ele>163</ele>
        <time>2022-01-29T15:29:28Z</time>
      </trkpt>
      <trkpt lat="43.19654" lon="5.57321">
        <ele>163</ele>
        <time>2022-01-29T15:29:42Z</time>
      </trkpt>
      <trkpt lat="43.19639" lon="5.57334">
        <ele>163</ele>
        <time>2022-01-29T15:30:06Z</time>
      </trkpt>
      <trkpt lat="43.19638" lon="5.57383">
        <ele>162</ele>
        <time>2022-01-29T15:30:54Z</time>
      </trkpt>
      <trkpt lat="43.19605" lon="5.57434">
        <ele>156</ele>
        <time>2022-01-29T15:32:00Z</time>
      </trkpt>
      <trkpt lat="43.19588" lon="5.57462">
        <ele>151</ele>
        <time>2022-01-29T15:32:35Z</time>
      </trkpt>
      <trkpt lat="43.19458" lon="5.57593">
        <ele>143</ele>
        <time>2022-01-29T15:36:11Z</time>
      </trkpt>
      <trkpt lat="43.19426" lon="5.5762">
        <ele>140</ele>
        <time>2022-01-29T15:37:01Z</time>
      </trkpt>
      <trkpt lat="43.19391" lon="5.57633">
        <ele>141</ele>
        <time>2022-01-29T15:37:49Z</time>
      </trkpt>
      <trkpt lat="43.19378" lon="5.57682">
        <ele>138</ele>
        <time>2022-01-29T15:38:40Z</time>
      </trkpt>
      <trkpt lat="43.19341" lon="5.57756">
        <ele>134</ele>
        <time>2022-01-29T15:40:07Z</time>
      </trkpt>
      <trkpt lat="43.19326" lon="5.57864">
        <ele>128</ele>
        <time>2022-01-29T15:41:54Z</time>
      </trkpt>
      <trkpt lat="43.19327" lon="5.57948">
        <ele>125</ele>
        <time>2022-01-29T15:43:16Z</time>
      </trkpt>
      <trkpt lat="43.19314" lon="5.57978">
        <ele>123</ele>
        <time>2022-01-29T15:43:50Z</time>
      </trkpt>
      <trkpt lat="43.19318" lon="5.57995">
        <ele>122</ele>
        <time>2022-01-29T15:44:07Z</time>
      </trkpt>
      <trkpt lat="43.19279" lon="5.58017">
        <ele>119</ele>
        <time>2022-01-29T15:45:04Z</time>
      </trkpt>
      <trkpt lat="43.19274" lon="5.58041">
        <ele>116</ele>
        <time>2022-01-29T15:45:28Z</time>
      </trkpt>
      <trkpt lat="43.19286" lon="5.5808">
        <ele>115</ele>
        <time>2022-01-29T15:46:09Z</time>
      </trkpt>
      <trkpt lat="43.19278" lon="5.58124">
        <ele>114</ele>
        <time>2022-01-29T15:46:53Z</time>
      </trkpt>
      <trkpt lat="43.19318" lon="5.58228">
        <ele>112</ele>
        <time>2022-01-29T15:48:48Z</time>
      </trkpt>
      <trkpt lat="43.19273" lon="5.58436">
        <ele>108</ele>
        <time>2022-01-29T15:52:19Z</time>
      </trkpt>
      <trkpt lat="43.19318" lon="5.58525">
        <ele>106</ele>
        <time>2022-01-29T15:54:04Z</time>
      </trkpt>
      <trkpt lat="43.1928" lon="5.58686">
        <ele>97</ele>
        <time>2022-01-29T15:56:49Z</time>
      </trkpt>
      <trkpt lat="43.19199" lon="5.58733">
        <ele>97</ele>
        <time>2022-01-29T15:58:46Z</time>
      </trkpt>
      <trkpt lat="43.19182" lon="5.58837">
        <ele>93</ele>
        <time>2022-01-29T16:00:30Z</time>
      </trkpt>
      <trkpt lat="43.19177" lon="5.58923">
        <ele>89</ele>
        <time>2022-01-29T16:01:54Z</time>
      </trkpt>
      <trkpt lat="43.19142" lon="5.58938">
        <ele>89</ele>
        <time>2022-01-29T16:02:43Z</time>
      </trkpt>
      <trkpt lat="43.19086" lon="5.58947">
        <ele>88</ele>
        <time>2022-01-29T16:03:58Z</time>
      </trkpt>
      <trkpt lat="43.19036" lon="5.59026">
        <ele>87</ele>
        <time>2022-01-29T16:05:40Z</time>
      </trkpt>
      <trkpt lat="43.18958" lon="5.59037">
        <ele>85</ele>
        <time>2022-01-29T16:07:24Z</time>
      </trkpt>
      <trkpt lat="43.18928" lon="5.59116">
        <ele>83</ele>
        <time>2022-01-29T16:08:51Z</time>
      </trkpt>
      <trkpt lat="43.18941" lon="5.59013">
        <ele>85</ele>
        <time>2022-01-29T16:10:33Z</time>
      </trkpt>
      <trkpt lat="43.18892" lon="5.58844">
        <ele>92</ele>
        <time>2022-01-29T16:13:30Z</time>
      </trkpt>
      <trkpt lat="43.18881" lon="5.58868">
        <ele>92</ele>
        <time>2022-01-29T16:13:57Z</time>
      </trkpt>
      <trkpt lat="43.1879" lon="5.58732">
        <ele>104</ele>
        <time>2022-01-29T16:16:57Z</time>
      </trkpt>
      <trkpt lat="43.18775" lon="5.58784">
        <ele>103</ele>
        <time>2022-01-29T16:17:51Z</time>
      </trkpt>
      <trkpt lat="43.18631" lon="5.58531">
        <ele>131</ele>
        <time>2022-01-29T16:23:03Z</time>
      </trkpt>
      <trkpt lat="43.18509" lon="5.58408">
        <ele>137</ele>
        <time>2022-01-29T16:26:25Z</time>
      </trkpt>
      <trkpt lat="43.1837" lon="5.58317">
        <ele>156</ele>
        <time>2022-01-29T16:29:51Z</time>
      </trkpt>
      <trkpt lat="43.1841" lon="5.58282">
        <ele>162</ele>
        <time>2022-01-29T16:30:54Z</time>
      </trkpt>
      <trkpt lat="43.18411" lon="5.58105">
        <ele>190</ele>
        <time>2022-01-29T16:33:47Z</time>
      </trkpt>
      <trkpt lat="43.18482" lon="5.58112">
        <ele>183</ele>
        <time>2022-01-29T16:35:22Z</time>
      </trkpt>
      <trkpt lat="43.18415" lon="5.58061">
        <ele>198</ele>
        <time>2022-01-29T16:37:04Z</time>
      </trkpt>
      <trkpt lat="43.18357" lon="5.58084">
        <ele>196</ele>
        <time>2022-01-29T16:38:24Z</time>
      </trkpt>
      <trkpt lat="43.18304" lon="5.58035">
        <ele>207</ele>
        <time>2022-01-29T16:39:50Z</time>
      </trkpt>
      <trkpt lat="43.18349" lon="5.58018">
        <ele>211</ele>
        <time>2022-01-29T16:40:52Z</time>
      </trkpt>
      <trkpt lat="43.18426" lon="5.57919">
        <ele>218</ele>
        <time>2022-01-29T16:43:13Z</time>
      </trkpt>
      <trkpt lat="43.18365" lon="5.57926">
        <ele>230</ele>
        <time>2022-01-29T16:44:35Z</time>
      </trkpt>
      <trkpt lat="43.18357" lon="5.57857">
        <ele>238</ele>
        <time>2022-01-29T16:45:43Z</time>
      </trkpt>
      <trkpt lat="43.18296" lon="5.57808">
        <ele>249</ele>
        <time>2022-01-29T16:47:17Z</time>
      </trkpt>
      <trkpt lat="43.18165" lon="5.57767">
        <ele>275</ele>
        <time>2022-01-29T16:50:16Z</time>
      </trkpt>
      <trkpt lat="43.18094" lon="5.57692">
        <ele>285</ele>
        <time>2022-01-29T16:52:16Z</time>
      </trkpt>
      <trkpt lat="43.17949" lon="5.57599">
        <ele>308</ele>
        <time>2022-01-29T16:55:49Z</time>
      </trkpt>
      <trkpt lat="43.17919" lon="5.57567">
        <ele>312</ele>
        <time>2022-01-29T16:56:40Z</time>
      </trkpt>
      <trkpt lat="43.17915" lon="5.57523">
        <ele>316</ele>
        <time>2022-01-29T16:57:23Z</time>
      </trkpt>
      <trkpt lat="43.17892" lon="5.57405">
        <ele>325</ele>
        <time>2022-01-29T16:59:22Z</time>
      </trkpt>
      <trkpt lat="43.17858" lon="5.57361">
        <ele>325</ele>
        <time>2022-01-29T17:00:24Z</time>
      </trkpt>
      <trkpt lat="43.17833" lon="5.57325">
        <ele>325</ele>
        <time>2022-01-29T17:01:13Z</time>
      </trkpt>
      <trkpt lat="43.17811" lon="5.57296">
        <ele>322</ele>
        <time>2022-01-29T17:01:54Z</time>
      </trkpt>
      <trkpt lat="43.1779" lon="5.57275">
        <ele>320</ele>
        <time>2022-01-29T17:02:28Z</time>
      </trkpt>
      <trkpt lat="43.17759" lon="5.5727">
        <ele>319</ele>
        <time>2022-01-29T17:03:10Z</time>
      </trkpt>
      <trkpt lat="43.17739" lon="5.57284">
        <ele>317</ele>
        <time>2022-01-29T17:03:40Z</time>
      </trkpt>
      <trkpt lat="43.17725" lon="5.57299">
        <ele>315</ele>
        <time>2022-01-29T17:04:04Z</time>
      </trkpt>
      <trkpt lat="43.17706" lon="5.57324">
        <ele>315</ele>
        <time>2022-01-29T17:04:39Z</time>
      </trkpt>
      <trkpt lat="43.1769" lon="5.57327">
        <ele>313</ele>
        <time>2022-01-29T17:05:00Z</time>
      </trkpt>
      <trkpt lat="43.17644" lon="5.57344">
        <ele>309</ele>
        <time>2022-01-29T17:06:04Z</time>
      </trkpt>
    </trkseg>
  </trk>
</gpx>